Terminal Aerodrome Forecast
Issued by NWS Wichita, KS

Home | Current Version | Previous Version | Text Only | Print | Product List | Glossary Off
Versions: 1 2 3 4 5 6 7 8 9 10 11 12 13 14 15 16

568
FTUS43 KICT 252324
TAFICT
TAF
KICT 252324Z 2600/2624 05011KT P6SM SCT030 BKN120
     FM260200 07005KT P6SM BKN200
     FM260900 07004KT 5SM BR SCT020
     FM261300 09005KT 6SM BR SCT020
     FM261500 10007KT P6SM SCT070=

USA.gov is the U.S. government's official web portal to all federal, state and local government web resources and services.